Mostly Cloudy Current Weather (METAR) For Cancun Airport

All times on the weather descriptions are local

Observed at 04:46 - (28 mins ago)

Mostly Cloudy

25°C

Mostly Cloudy
Clouds: Few Clouds at 1,500ft, Scattered Clouds at 10,000ft, Broken Clouds at 25,000ft
Wind: 100° at 06 knots
Visibility: 6 statute miles
QNH:
Dew Point: 23°C
Runway in Use: Runway 12

Sunrise Today: 06:44
Sunset Today: 18:19

Forecast Weather (TAF) For Cancun Airport

Issued at 19:00 - (9 days 13 hrs ago)


Runway in Use: Unable to determine, wind is clam

Forecast valid until 19:00 on Thursday

METAR/TAF RAW METAR / TAF

MMUN 210946Z 10006KT 6SM FEW015 SCT100 BKN250 25/23 A2981 RMK 8/578

Weather Widget

Put weather from any of our airports on your website with our weather widget.

Find Another Search

Airport Search


Please Wait Please Wait - Loading
Close
Close

Login

Username:

Password:

Remember Me:

Remember me on this computer

Forgotten your password? Get a reset password sent to your registered e-mail address

Close

User Private Message

Subject:

Message: